Time;durP1;ratioP1;P1;durP2;ratioP2;P2;SDS_P1;SDS_P2;PMS_P1;PMS_P2;Temp;Humidity;BMP_temperature;BMP_pressure;BME280_temperature;BME280_humidity;BME280_pressure;Samples;Min_cycle;Max_cycle;Signal;HPM_P1;HPM_P2
2022/08/12 00:44:06;;;;;;;;;;;;;;;-144.99;100.00;61100.13;5032695;28;19979;-67
2022/08/12 00:46:38;;;;;;;;;;;;;;;-144.99;100.00;61100.13;5038401;28;19956;-66
2022/08/12 00:49:06;;;;;;;;;;;;;;;-144.99;100.00;61100.13;5034256;28;20453;-67
2022/08/12 00:54:13;;;;;;;;;;;;;;;-144.99;100.00;61100.13;5037699;28;20685;-66
2022/08/12 00:56:41;;;;;;;;;;;;;;;-144.99;100.00;61100.13;5032978;28;19952;-69
2022/08/12 00:59:08;;;;;;;;;;;;;;;-144.99;100.00;61100.13;5034966;28;19935;-67
2022/08/12 01:01:35;;;;;;;;;;;;;;;-144.99;100.00;61100.13;5038817;28;20381;-63
2022/08/12 01:12:17;;;;;;;;;;;;;;;-144.99;100.00;61100.13;5030781;28;19990;-61
2022/08/12 01:14:44;;;;;;;;;;;;;;;-144.99;100.00;61100.13;5044506;28;19929;-61
2022/08/12 01:17:10;;;;;;;;;;;;;;;-144.99;100.00;61100.13;5039517;28;20414;-61
2022/08/12 01:19:37;;;;;;;;;;;;;;;-144.99;100.00;61100.13;5029936;28;20016;-61
2022/08/12 01:22:13;;;;;;;;;;;;;;;-144.99;100.00;61100.13;5029330;28;19999;-61
2022/08/12 01:24:49;;;;;;;;;;;;;;;-144.99;100.00;61100.13;5037702;28;19926;-69
2022/08/12 01:27:18;;;;;;;;;;;;;;;-144.99;100.00;61100.13;5023644;28;19926;-68
2022/08/12 01:29:46;;;;;;;;;;;;;;;-144.99;100.00;61100.13;5027156;28;20032;-69
2022/08/12 01:32:14;;;;;;;;;;;;;;;-144.99;100.00;61100.13;5031393;28;19968;-67
2022/08/12 01:34:44;;;;;;;;;;;;;;;-144.99;100.00;61100.13;5033231;28;19925;-67
2022/08/12 01:37:12;;;;;;;;;;;;;;;-144.99;100.00;61100.13;5043047;28;19963;-66
2022/08/12 01:39:42;;;;;;;;;;;;;;;-144.99;100.00;61100.13;5026914;28;19940;-67
2022/08/12 01:42:10;;;;;;;;;;;;;;;-144.99;100.00;61100.13;5032264;28;19929;-66
2022/08/12 01:44:36;;;;;;;;;;;;;;;-144.99;100.00;61100.13;5032335;28;19961;-67
2022/08/12 01:47:10;;;;;;;;;;;;;;;-144.99;100.00;61100.13;5031321;28;20298;-68
2022/08/12 01:49:43;;;;;;;;;;;;;;;-144.99;100.00;61100.13;5029497;28;20039;-67
2022/08/12 01:52:16;;;;;;;;;;;;;;;-144.99;100.00;61100.13;5026652;28;19929;-67
2022/08/12 01:54:44;;;;;;;;;;;;;;;-144.99;100.00;61100.13;5021285;28;20259;-67
2022/08/12 01:57:15;;;;;;;;;;;;;;;-144.99;100.00;61100.13;5041202;28;20011;-67
2022/08/12 01:59:49;;;;;;;;;;;;;;;-144.99;100.00;61100.13;5048863;28;19961;-66
2022/08/12 02:02:17;;;;;;;;;;;;;;;-144.99;100.00;61100.13;5028772;28;20390;-67
2022/08/12 02:13:23;;;;;;;;;;;;;;;-144.99;100.00;61100.13;5046970;28;19931;-65
2022/08/12 02:15:55;;;;;;;;;;;;;;;-144.99;100.00;61100.13;5039035;28;20574;-65
2022/08/12 02:18:29;;;;;;;;;;;;;;;-144.99;100.00;61100.13;5035356;28;19991;-66
2022/08/12 02:21:00;;;;;;;;;;;;;;;-144.99;100.00;61100.13;5032183;28;19925;-67
2022/08/12 02:23:27;;;;;;;;;;;;;;;-144.99;100.00;61100.13;5033595;28;19991;-64
2022/08/12 02:25:56;;;;;;;;;;;;;;;-144.99;100.00;61100.13;5042133;28;19924;-64
2022/08/12 02:28:24;;;;;;;;;;;;;;;-144.99;100.00;61100.13;5031766;28;19968;-67
2022/08/12 02:30:50;;;;;;;;;;;;;;;-144.99;100.00;61100.13;5025692;28;20378;-66
2022/08/12 02:33:17;;;;;;;;;;;;;;;-144.99;100.00;61100.13;5039581;28;19931;-67
2022/08/12 02:35:44;;;;;;;;;;;;;;;-144.99;100.00;61100.13;5029989;28;19949;-64
2022/08/12 02:38:11;;;;;;;;;;;;;;;-144.99;100.00;61100.13;5029617;28;20378;-64
2022/08/12 02:40:39;;;;;;;;;;;;;;;-144.99;100.00;61100.13;5028821;28;20032;-65
2022/08/12 02:43:11;;;;;;;;;;;;;;;-144.99;100.00;61100.13;5033415;28;20010;-63
2022/08/12 02:45:44;;;;;;;;;;;;;;;-144.99;100.00;61100.13;5030594;28;19925;-64
2022/08/12 02:48:14;;;;;;;;;;;;;;;-144.99;100.00;61100.13;5028359;28;19925;-64
2022/08/12 02:50:44;;;;;;;;;;;;;;;-144.99;100.00;61100.13;5023661;28;19952;-63
2022/08/12 02:53:11;;;;;;;;;;;;;;;-144.99;100.00;61100.13;5028269;28;19925;-63
2022/08/12 02:55:38;;;;;;;;;;;;;;;-144.99;100.00;61100.13;5028227;28;19925;-64
2022/08/12 02:58:06;;;;;;;;;;;;;;;-144.99;100.00;61100.13;5045255;28;20382;-64
2022/08/12 03:00:33;;;;;;;;;;;;;;;-144.99;100.00;61100.13;5029850;28;20366;-64
2022/08/12 03:03:04;;;;;;;;;;;;;;;-144.99;100.00;61100.13;5034661;28;19979;-60
2022/08/12 03:05:32;;;;;;;;;;;;;;;-144.99;100.00;61100.13;5030667;28;20273;-58
2022/08/12 03:08:00;;;;;;;;;;;;;;;-144.99;100.00;61100.13;5033138;28;20012;-61
2022/08/12 03:10:28;;;;;;;;;;;;;;;-144.99;100.00;61100.13;5029322;28;20350;-60
2022/08/12 03:12:57;;;;;;;;;;;;;;;-144.99;100.00;61100.13;5038703;28;19925;-60
2022/08/12 03:15:24;;;;;;;;;;;;;;;-144.99;100.00;61100.13;5041948;28;19928;-62
2022/08/12 03:17:51;;;;;;;;;;;;;;;-144.99;100.00;61100.13;5032008;28;19928;-62
2022/08/12 03:20:20;;;;;;;;;;;;;;;-144.99;100.00;61100.13;5026606;28;19948;-61
2022/08/12 03:22:48;;;;;;;;;;;;;;;-144.99;100.00;61100.13;5039703;28;20035;-60
2022/08/12 03:25:16;;;;;;;;;;;;;;;-144.99;100.00;61100.13;5035266;28;19964;-61
2022/08/12 03:27:48;;;;;;;;;;;;;;;-144.99;100.00;61100.13;5033837;28;19925;-62
2022/08/12 03:30:15;;;;;;;;;;;;;;;-144.99;100.00;61100.13;5028436;28;19937;-62
2022/08/12 03:32:45;;;;;;;;;;;;;;;-144.99;100.00;61100.13;5028513;28;19968;-71
2022/08/12 03:35:13;;;;;;;;;;;;;;;-144.99;100.00;61100.13;5031426;28;19983;-71
2022/08/12 03:37:41;;;;;;;;;;;;;;;-144.99;100.00;61100.13;5033101;28;20036;-71
2022/08/12 03:41:31;;;;;;;;;;;;;;;-144.99;100.00;61100.13;5036935;28;19967;-66
2022/08/12 04:02:12;;;;;;;;;;;;;;;-144.99;100.00;61100.13;5041275;28;19988;-65
2022/08/12 04:04:43;;;;;;;;;;;;;;;-144.99;100.00;61100.13;5046151;28;19924;-64
2022/08/12 04:07:11;;;;;;;;;;;;;;;-144.99;100.00;61100.13;5032818;28;19940;-63
2022/08/12 04:09:40;;;;;;;;;;;;;;;-144.99;100.00;61100.13;5034975;28;20457;-63
2022/08/12 04:14:51;;;;;;;;;;;;;;;-144.99;100.00;61100.13;5042505;28;20326;-62
2022/08/12 04:17:18;;;;;;;;;;;;;;;-144.99;100.00;61100.13;5036527;28;20019;-66
2022/08/12 04:19:47;;;;;;;;;;;;;;;-144.99;100.00;61100.13;5033059;28;19936;-65
2022/08/12 04:22:13;;;;;;;;;;;;;;;-144.99;100.00;61100.13;5044559;28;19924;-65
2022/08/12 04:24:43;;;;;;;;;;;;;;;-144.99;100.00;61100.13;5043853;28;19963;-64
2022/08/12 04:27:10;;;;;;;;;;;;;;;-144.99;100.00;61100.13;5034625;28;19936;-65
2022/08/12 04:29:37;;;;;;;;;;;;;;;-144.99;100.00;61100.13;5039518;28;19925;-65
2022/08/12 04:32:05;;;;;;;;;;;;;;;-144.99;100.00;61100.13;5034121;28;19978;-64
2022/08/12 04:34:31;;;;;;;;;;;;;;;-144.99;100.00;61100.13;5041254;28;19925;-65
2022/08/12 04:36:58;;;;;;;;;;;;;;;-144.99;100.00;61100.13;5036627;28;20000;-65
2022/08/12 04:39:25;;;;;;;;;;;;;;;-144.99;100.00;61100.13;5035473;28;19925;-65
2022/08/12 04:41:53;;;;;;;;;;;;;;;-144.99;100.00;61100.13;5042884;28;20192;-63
2022/08/12 04:44:19;;;;;;;;;;;;;;;-144.99;100.00;61100.13;5037767;28;19964;-65
2022/08/12 04:46:46;;;;;;;;;;;;;;;-144.99;100.00;61100.13;5038788;28;19924;-65
2022/08/12 04:49:12;;;;;;;;;;;;;;;-144.99;100.00;61100.13;5040997;28;19935;-67
2022/08/12 04:51:40;;;;;;;;;;;;;;;-144.99;100.00;61100.13;5036609;28;20370;-66
2022/08/12 04:54:06;;;;;;;;;;;;;;;-144.99;100.00;61100.13;5065632;22;20347;-68
2022/08/12 04:56:33;;;;;;;;;;;;;;;-144.99;100.00;61100.13;5078918;28;19924;-68
2022/08/12 04:59:00;;;;;;;;;;;;;;;-144.99;100.00;61100.13;5081298;28;20015;-67
2022/08/12 05:01:29;;;;;;;;;;;;;;;-144.99;100.00;61100.13;5069796;28;19924;-67
2022/08/12 05:03:56;;;;;;;;;;;;;;;-144.99;100.00;61100.13;4714025;28;10000307;-68
2022/08/12 05:06:24;;;;;;;;;;;;;;;-144.99;100.00;61100.13;5057504;28;19928;-69
2022/08/12 05:08:51;;;;;;;;;;;;;;;-144.99;100.00;61100.13;5065472;28;19925;-68
2022/08/12 05:11:20;;;;;;;;;;;;;;;-144.99;100.00;61100.13;5059160;28;20011;-68
2022/08/12 05:13:47;;;;;;;;;;;;;;;-144.99;100.00;61100.13;5067392;28;19993;-68
2022/08/12 05:16:15;;;;;;;;;;;;;;;-144.99;100.00;61100.13;5067864;28;19935;-68
2022/08/12 05:18:42;;;;;;;;;;;;;;;-144.99;100.00;61100.13;5067705;28;20370;-68
2022/08/12 05:21:09;;;;;;;;;;;;;;;-144.99;100.00;61100.13;5067616;28;19972;-68
2022/08/12 05:23:36;;;;;;;;;;;;;;;-144.99;100.00;61100.13;5068690;28;20376;-69
2022/08/12 05:26:04;;;;;;;;;;;;;;;-144.99;100.00;61100.13;5068187;28;19929;-70
2022/08/12 05:28:32;;;;;;;;;;;;;;;-144.99;100.00;61100.13;5067182;28;19925;-68
2022/08/12 05:31:00;;;;;;;;;;;;;;;-144.99;100.00;61100.13;5068776;28;19935;-69
2022/08/12 05:33:34;;;;;;;;;;;;;;;-144.99;100.00;61100.13;5068933;28;19991;-69
2022/08/12 05:36:00;;;;;;;;;;;;;;;-144.99;100.00;61100.13;5068913;28;19931;-68
2022/08/12 05:41:19;;;;;;;;;;;;;;;-144.99;100.00;61100.13;5066817;28;20042;-68
2022/08/12 05:43:46;;;;;;;;;;;;;;;-144.99;100.00;61100.13;5069049;28;20388;-68
2022/08/12 05:46:13;;;;;;;;;;;;;;;-144.99;100.00;61100.13;5068937;28;19935;-70
2022/08/12 05:48:41;;;;;;;;;;;;;;;-144.99;100.00;61100.13;5067032;28;20454;-68
2022/08/12 05:51:10;;;;;;;;;;;;;;;-144.99;100.00;61100.13;5067091;28;19935;-68
2022/08/12 05:53:36;;;;;;;;;;;;;;;-144.99;100.00;61100.13;5063514;28;20343;-69
2022/08/12 05:56:03;;;;;;;;;;;;;;;-144.99;100.00;61100.13;5059874;28;20031;-69
2022/08/12 05:58:31;;;;;;;;;;;;;;;-144.99;100.00;61100.13;5067343;28;20055;-69
2022/08/12 06:00:58;;;;;;;;;;;;;;;-144.99;100.00;61100.13;5072319;28;20336;-69
2022/08/12 06:03:26;;;;;;;;;;;;;;;-144.99;100.00;61100.13;5066502;28;19932;-68
2022/08/12 06:05:55;;;;;;;;;;;;;;;-144.99;100.00;61100.13;5070458;28;19959;-69
2022/08/12 06:08:23;;;;;;;;;;;;;;;-144.99;100.00;61100.13;5066276;28;20359;-68
2022/08/12 06:10:49;;;;;;;;;;;;;;;-144.99;100.00;61100.13;5066010;28;19928;-69
2022/08/12 06:13:16;;;;;;;;;;;;;;;-144.99;100.00;61100.13;5067809;28;19925;-68
2022/08/12 06:15:42;;;;;;;;;;;;;;;-144.99;100.00;61100.13;5067231;28;19929;-68
2022/08/12 06:18:10;;;;;;;;;;;;;;;-144.99;100.00;61100.13;5065124;28;19991;-69
2022/08/12 06:20:36;;;;;;;;;;;;;;;-144.99;100.00;61100.13;5075695;28;20031;-69
2022/08/12 06:23:04;;;;;;;;;;;;;;;-144.99;100.00;61100.13;5084979;28;19924;-68
2022/08/12 06:25:33;;;;;;;;;;;;;;;-144.99;100.00;61100.13;5086899;28;19928;-69
2022/08/12 06:28:02;;;;;;;;;;;;;;;-144.99;100.00;61100.13;5071144;28;19935;-68
2022/08/12 06:30:32;;;;;;;;;;;;;;;-144.99;100.00;61100.13;5059392;28;20330;-69
2022/08/12 06:32:58;;;;;;;;;;;;;;;-144.99;100.00;61100.13;5067411;28;19970;-68
2022/08/12 06:35:26;;;;;;;;;;;;;;;-144.99;100.00;61100.13;5067476;28;19937;-68
2022/08/12 06:37:54;;;;;;;;;;;;;;;-144.99;100.00;61100.13;5063490;28;19925;-78
2022/08/12 06:43:03;;;;;;;;;;;;;;;-144.99;100.00;61100.13;5073481;28;20113;-74
2022/08/12 06:45:30;;;;;;;;;;;;;;;-144.99;100.00;61100.13;5061097;28;20391;-75
2022/08/12 06:47:58;;;;;;;;;;;;;;;-144.99;100.00;61100.13;5058037;28;20031;-75
2022/08/12 06:50:25;;;;;;;;;;;;;;;-144.99;100.00;61100.13;5062575;28;19929;-75
2022/08/12 06:52:52;;;;;;;;;;;;;;;-144.99;100.00;61100.13;5065235;28;19928;-73
2022/08/12 06:55:19;;;;;;;;;;;;;;;-144.99;100.00;61100.13;5066742;28;20175;-74
2022/08/12 06:57:54;;;;;;;;;;;;;;;-144.99;100.00;61100.13;5066353;28;19986;-73
2022/08/12 07:00:22;;;;;;;;;;;;;;;-144.99;100.00;61100.13;5059003;28;20207;-75
2022/08/12 07:02:49;;;;;;;;;;;;;;;-144.99;100.00;61100.13;5068420;28;19935;-73
2022/08/12 07:05:16;;;;;;;;;;;;;;;-144.99;100.00;61100.13;5054654;28;19942;-73
2022/08/12 07:07:46;;;;;;;;;;;;;;;-144.99;100.00;61100.13;5067548;28;19928;-74
2022/08/12 07:10:13;;;;;;;;;;;;;;;-144.99;100.00;61100.13;5068918;28;19954;-73
2022/08/12 07:12:39;;;;;;;;;;;;;;;-144.99;100.00;61100.13;5059812;28;20403;-73
2022/08/12 07:15:08;;;;;;;;;;;;;;;-144.99;100.00;61100.13;5067821;28;20468;-74
2022/08/12 07:17:35;;;;;;;;;;;;;;;-144.99;100.00;61100.13;5066369;28;19956;-73
2022/08/12 07:20:02;;;;;;;;;;;;;;;-144.99;100.00;61100.13;5058595;28;19924;-74
2022/08/12 07:22:29;;;;;;;;;;;;;;;-144.99;100.00;61100.13;5078602;28;19932;-72
2022/08/12 07:27:37;;;;;;;;;;;;;;;-144.99;100.00;61100.13;5073024;28;19975;-73
2022/08/12 07:30:04;;;;;;;;;;;;;;;-144.99;100.00;61100.13;5068846;28;20014;-74
2022/08/12 07:32:32;;;;;;;;;;;;;;;-144.99;100.00;61100.13;5083042;28;20418;-73
2022/08/12 07:34:58;;;;;;;;;;;;;;;-144.99;100.00;61100.13;5075718;28;20008;-75
2022/08/12 07:37:24;;;;;;;;;;;;;;;-144.99;100.00;61100.13;5076052;28;19932;-74
2022/08/12 07:39:51;;;;;;;;;;;;;;;-144.99;100.00;61100.13;5062095;28;19929;-74
2022/08/12 07:42:17;;;;;;;;;;;;;;;-144.99;100.00;61100.13;5080670;28;19955;-74
2022/08/12 07:44:44;;;;;;;;;;;;;;;-144.99;100.00;61100.13;5078496;28;20019;-73
2022/08/12 07:47:10;;;;;;;;;;;;;;;-144.99;100.00;61100.13;5068090;28;20127;-74
2022/08/12 07:49:38;;;;;;;;;;;;;;;-144.99;100.00;61100.13;5079489;28;19928;-75
2022/08/12 07:52:04;;;;;;;;;;;;;;;-144.99;100.00;61100.13;5066912;28;19939;-74
2022/08/12 07:54:31;;;;;;;;;;;;;;;-144.99;100.00;61100.13;5068900;28;19928;-72
2022/08/12 07:56:57;;;;;;;;;;;;;;;-144.99;100.00;61100.13;5068695;28;19928;-73
2022/08/12 07:59:24;;;;;;;;;;;;;;;-144.99;100.00;61100.13;5064911;28;19930;-73
2022/08/12 08:01:51;;;;;;;;;;;;;;;-144.99;100.00;61100.13;5068286;28;19928;-73
2022/08/12 08:07:08;;;;;;;;;;;;;;;-144.99;100.00;61100.13;5065962;28;20065;-73
2022/08/12 08:09:34;;;;;;;;;;;;;;;-144.99;100.00;61100.13;5068183;28;19929;-74
2022/08/12 08:14:59;;;;;;;;;;;;;;;-144.99;100.00;61100.13;5024272;28;19933;-74
2022/08/12 08:17:26;;;;;;;;;;;;;;;-144.99;100.00;61100.13;5022204;28;19933;-74
2022/08/12 08:19:54;;;;;;;;;;;;;;;-144.99;100.00;61100.13;5043393;28;19928;-73
2022/08/12 08:22:22;;;;;;;;;;;;;;;-144.99;100.00;61100.13;5073714;28;19967;-75
2022/08/12 08:24:55;;;;;;;;;;;;;;;-144.99;100.00;61100.13;5065364;28;19935;-75
2022/08/12 08:27:21;;;;;;;;;;;;;;;-144.99;100.00;61100.13;5073245;28;20416;-74
2022/08/12 08:29:48;;;;;;;;;;;;;;;-144.99;100.00;61100.13;5068213;28;19931;-74
2022/08/12 08:32:14;;;;;;;;;;;;;;;-144.99;100.00;61100.13;5069342;28;19932;-75
2022/08/12 08:34:44;;;;;;;;;;;;;;;-144.99;100.00;61100.13;5069910;28;20030;-74
2022/08/12 08:37:14;;;;;;;;;;;;;;;-144.99;100.00;61100.13;5065791;28;19925;-74
2022/08/12 08:39:41;;;;;;;;;;;;;;;-144.99;100.00;61100.13;5066003;28;20023;-73
2022/08/12 08:44:56;;;;;;;;;;;;;;;-144.99;100.00;61100.13;5074559;28;20339;-74
2022/08/12 08:47:22;;;;;;;;;;;;;;;-144.99;100.00;61100.13;5079134;28;20381;-73
2022/08/12 08:49:49;;;;;;;;;;;;;;;-144.99;100.00;61100.13;5070465;28;20456;-74
2022/08/12 08:52:15;;;;;;;;;;;;;;;-144.99;100.00;61100.13;5079346;28;19932;-74
2022/08/12 08:54:43;;;;;;;;;;;;;;;-144.99;100.00;61100.13;5070095;28;19925;-74
2022/08/12 08:57:10;;;;;;;;;;;;;;;-144.99;100.00;61100.13;5065824;28;20720;-74
2022/08/12 08:59:36;;;;;;;;;;;;;;;-144.99;100.00;61100.13;5060927;28;20426;-74
2022/08/12 09:02:03;;;;;;;;;;;;;;;-144.99;100.00;61100.13;5065371;28;20027;-75
2022/08/12 09:04:29;;;;;;;;;;;;;;;-144.99;100.00;61100.13;5071111;28;19956;-74
2022/08/12 09:06:59;;;;;;;;;;;;;;;-144.99;100.00;61100.13;5069542;28;20007;-73
2022/08/12 09:09:25;;;;;;;;;;;;;;;-144.99;100.00;61100.13;5070773;28;19928;-72
2022/08/12 09:14:38;;;;;;;;;;;;;;;-144.99;100.00;61100.13;5072788;28;20053;-73
2022/08/12 09:17:04;;;;;;;;;;;;;;;-144.99;100.00;61100.13;5069734;28;20455;-74
2022/08/12 09:19:31;;;;;;;;;;;;;;;-144.99;100.00;61100.13;5070146;28;20036;-73
2022/08/12 09:21:58;;;;;;;;;;;;;;;-144.99;100.00;61100.13;5076564;28;19940;-73
2022/08/12 09:24:24;;;;;;;;;;;;;;;-144.99;100.00;61100.13;5064965;28;19928;-75
2022/08/12 09:26:51;;;;;;;;;;;;;;;-144.99;100.00;61100.13;5081490;28;20578;-74
2022/08/12 09:29:20;;;;;;;;;;;;;;;-144.99;100.00;61100.13;5069321;28;20031;-75
2022/08/12 09:31:51;;;;;;;;;;;;;;;-144.99;100.00;61100.13;5068881;28;19936;-74
2022/08/12 09:34:17;;;;;;;;;;;;;;;-144.99;100.00;61100.13;5080570;28;19932;-74
2022/08/12 09:36:44;;;;;;;;;;;;;;;-144.99;100.00;61100.13;5077948;28;20020;-74
2022/08/12 09:39:12;;;;;;;;;;;;;;;-144.99;100.00;61100.13;5073934;28;19989;-75
2022/08/12 09:41:39;;;;;;;;;;;;;;;-144.99;100.00;61100.13;5077381;28;19924;-76
2022/08/12 09:46:50;;;;;;;;;;;;;;;-144.99;100.00;61100.13;5061055;28;19935;-74
2022/08/12 09:49:17;;;;;;;;;;;;;;;-144.99;100.00;61100.13;5067961;28;20488;-74
2022/08/12 09:51:46;;;;;;;;;;;;;;;-144.99;100.00;61100.13;5068929;28;20381;-75
2022/08/12 09:54:13;;;;;;;;;;;;;;;-144.99;100.00;61100.13;5066850;28;19924;-75
2022/08/12 09:56:40;;;;;;;;;;;;;;;-144.99;100.00;61100.13;5080751;28;19935;-73
2022/08/12 09:59:07;;;;;;;;;;;;;;;-144.99;100.00;61100.13;5073319;28;20398;-74
2022/08/12 10:01:37;;;;;;;;;;;;;;;-144.99;100.00;61100.13;5069009;28;19935;-74
2022/08/12 10:04:09;;;;;;;;;;;;;;;-144.99;100.00;61100.13;5067643;28;19950;-73
2022/08/12 10:06:36;;;;;;;;;;;;;;;-144.99;100.00;61100.13;5068894;28;19951;-76
2022/08/12 10:09:02;;;;;;;;;;;;;;;-144.99;100.00;61100.13;5080731;28;20630;-74
2022/08/12 10:14:12;;;;;;;;;;;;;;;-144.99;100.00;61100.13;5074313;28;19935;-74
2022/08/12 10:16:42;;;;;;;;;;;;;;;-144.99;100.00;61100.13;5059165;28;20019;-74
2022/08/12 10:19:10;;;;;;;;;;;;;;;-144.99;100.00;61100.13;5067368;28;19929;-74
2022/08/12 10:21:37;;;;;;;;;;;;;;;-144.99;100.00;61100.13;5070981;28;20296;-75
2022/08/12 10:24:04;;;;;;;;;;;;;;;-144.99;100.00;61100.13;5078900;28;19924;-75
2022/08/12 10:32:03;;;;;;;;;;;;;;;-144.99;100.00;61100.13;5065052;28;20005;-75
2022/08/12 10:34:30;;;;;;;;;;;;;;;-144.99;100.00;61100.13;5080786;28;19939;-75
2022/08/12 10:36:58;;;;;;;;;;;;;;;-144.99;100.00;61100.13;5067966;28;19934;-75
2022/08/12 10:39:25;;;;;;;;;;;;;;;-144.99;100.00;61100.13;5068702;28;19928;-75
2022/08/12 10:44:36;;;;;;;;;;;;;;;-144.99;100.00;61100.13;5074535;28;20145;-75
2022/08/12 10:47:04;;;;;;;;;;;;;;;-144.99;100.00;61100.13;5086256;28;19932;-76
2022/08/12 10:49:33;;;;;;;;;;;;;;;-144.99;100.00;61100.13;5084668;28;19935;-76
2022/08/12 10:52:01;;;;;;;;;;;;;;;-144.99;100.00;61100.13;5072431;28;20427;-76
2022/08/12 10:54:28;;;;;;;;;;;;;;;-144.99;100.00;61100.13;5060190;28;19933;-74
2022/08/12 10:56:59;;;;;;;;;;;;;;;-144.99;100.00;61100.13;5068459;28;19932;-76
2022/08/12 10:59:27;;;;;;;;;;;;;;;-144.99;100.00;61100.13;5068754;28;19929;-76
2022/08/12 11:01:55;;;;;;;;;;;;;;;-144.99;100.00;61100.13;5066219;28;19928;-74
2022/08/12 11:04:21;;;;;;;;;;;;;;;-144.99;100.00;61100.13;5068099;28;20014;-75
2022/08/12 11:06:52;;;;;;;;;;;;;;;-144.99;100.00;61100.13;5066689;28;20473;-75
2022/08/12 11:09:19;;;;;;;;;;;;;;;-144.99;100.00;61100.13;5067418;28;19928;-75
2022/08/12 11:11:46;;;;;;;;;;;;;;;-144.99;100.00;61100.13;5064640;28;20016;-74
2022/08/12 11:14:14;;;;;;;;;;;;;;;-144.99;100.00;61100.13;5059873;28;19935;-74
2022/08/12 11:16:40;;;;;;;;;;;;;;;-144.99;100.00;61100.13;5066091;28;19929;-75
2022/08/12 11:19:07;;;;;;;;;;;;;;;-144.99;100.00;61100.13;5067940;28;20028;-75
2022/08/12 11:21:33;;;;;;;;;;;;;;;-144.99;100.00;61100.13;5073174;28;19928;-75
2022/08/12 11:24:01;;;;;;;;;;;;;;;-144.99;100.00;61100.13;5077510;28;20010;-76
2022/08/12 11:26:28;;;;;;;;;;;;;;;-144.99;100.00;61100.13;5077125;28;20221;-75
2022/08/12 11:28:54;;;;;;;;;;;;;;;-144.99;100.00;61100.13;5059943;28;19929;-75
2022/08/12 11:31:20;;;;;;;;;;;;;;;-144.99;100.00;61100.13;5075031;28;20014;-76
2022/08/12 11:33:48;;;;;;;;;;;;;;;-144.99;100.00;61100.13;5064689;28;19971;-76
2022/08/12 11:36:14;;;;;;;;;;;;;;;-144.99;100.00;61100.13;5069813;28;19985;-75
2022/08/12 11:38:41;;;;;;;;;;;;;;;-144.99;100.00;61100.13;5082081;28;20400;-75
2022/08/12 11:41:08;;;;;;;;;;;;;;;-144.99;100.00;61100.13;5072610;28;20556;-75
2022/08/12 11:43:35;;;;;;;;;;;;;;;-144.99;100.00;61100.13;5073877;28;19933;-76
2022/08/12 11:46:02;;;;;;;;;;;;;;;-144.99;100.00;61100.13;5061484;28;20282;-76
2022/08/12 11:48:29;;;;;;;;;;;;;;;-144.99;100.00;61100.13;5060374;28;20429;-74
2022/08/12 11:50:55;;;;;;;;;;;;;;;-144.99;100.00;61100.13;5066900;28;20003;-74
2022/08/12 11:53:22;;;;;;;;;;;;;;;-144.99;100.00;61100.13;5062193;28;19971;-74
2022/08/12 11:55:48;;;;;;;;;;;;;;;-144.99;100.00;61100.13;5066141;28;19971;-75
2022/08/12 11:58:16;;;;;;;;;;;;;;;-144.99;100.00;61100.13;5065922;28;20397;-75
2022/08/12 12:00:43;;;;;;;;;;;;;;;-144.99;100.00;61100.13;5063030;28;19928;-75
2022/08/12 12:03:09;;;;;;;;;;;;;;;-144.99;100.00;61100.13;5057559;28;20304;-76
2022/08/12 12:05:36;;;;;;;;;;;;;;;-144.99;100.00;61100.13;5061523;28;20340;-75
2022/08/12 12:08:02;;;;;;;;;;;;;;;-144.99;100.00;61100.13;5073309;28;19932;-76
2022/08/12 12:10:29;;;;;;;;;;;;;;;-144.99;100.00;61100.13;5064354;28;19931;-75
2022/08/12 12:12:55;;;;;;;;;;;;;;;-144.99;100.00;61100.13;5060927;28;20016;-75
2022/08/12 12:15:23;;;;;;;;;;;;;;;-144.99;100.00;61100.13;5068359;28;20489;-75
2022/08/12 12:17:51;;;;;;;;;;;;;;;-144.99;100.00;61100.13;5066068;28;19928;-74
2022/08/12 12:20:18;;;;;;;;;;;;;;;-144.99;100.00;61100.13;5061062;28;19938;-77
2022/08/12 12:22:44;;;;;;;;;;;;;;;-144.99;100.00;61100.13;5062273;28;19964;-76
2022/08/12 12:25:11;;;;;;;;;;;;;;;-144.99;100.00;61100.13;5069369;28;20396;-75
2022/08/12 12:27:44;;;;;;;;;;;;;;;-144.99;100.00;61100.13;5066738;28;20019;-75
2022/08/12 12:30:11;;;;;;;;;;;;;;;-144.99;100.00;61100.13;5056475;28;20023;-76
2022/08/12 12:32:39;;;;;;;;;;;;;;;-144.99;100.00;61100.13;5068338;28;20022;-75
2022/08/12 12:35:06;;;;;;;;;;;;;;;-144.99;100.00;61100.13;5048736;28;20456;-75
2022/08/12 12:37:32;;;;;;;;;;;;;;;-144.99;100.00;61100.13;5067601;28;20045;-74
2022/08/12 12:39:59;;;;;;;;;;;;;;;-144.99;100.00;61100.13;5072555;28;20035;-74
2022/08/12 12:42:25;;;;;;;;;;;;;;;-144.99;100.00;61100.13;5073861;28;19936;-74
2022/08/12 12:44:52;;;;;;;;;;;;;;;-144.99;100.00;61100.13;5066152;28;20514;-74
2022/08/12 12:47:18;;;;;;;;;;;;;;;-144.99;100.00;61100.13;5074449;28;20400;-74
2022/08/12 12:49:46;;;;;;;;;;;;;;;-144.99;100.00;61100.13;5074514;28;19928;-74
2022/08/12 12:52:12;;;;;;;;;;;;;;;-144.99;100.00;61100.13;5074720;28;20022;-74
2022/08/12 12:54:51;;;;;;;;;;;;;;;-144.99;100.00;61100.13;5069078;28;19925;-74
2022/08/12 12:57:17;;;;;;;;;;;;;;;-144.99;100.00;61100.13;5059818;28;19925;-73
2022/08/12 13:00:13;;;;;;;;;;;;;;;-144.99;100.00;61100.13;5064508;28;20300;-74
2022/08/12 13:02:30;;;;;;;;;;;;;;;-144.99;100.00;61100.13;5070453;28;19935;-76
2022/08/12 13:04:58;;;;;;;;;;;;;;;-144.99;100.00;61100.13;5070252;28;19975;-74
2022/08/12 13:07:25;;;;;;;;;;;;;;;-144.99;100.00;61100.13;5071527;28;20341;-74
2022/08/12 13:09:52;;;;;;;;;;;;;;;-144.99;100.00;61100.13;5070567;28;19928;-74
2022/08/12 13:12:19;;;;;;;;;;;;;;;-144.99;100.00;61100.13;5062388;28;20051;-75
2022/08/12 13:14:45;;;;;;;;;;;;;;;-144.99;100.00;61100.13;5070486;28;19928;-74
2022/08/12 13:17:15;;;;;;;;;;;;;;;-144.99;100.00;61100.13;5067546;28;19931;-74
2022/08/12 13:19:41;;;;;;;;;;;;;;;-144.99;100.00;61100.13;5061590;28;19976;-74
2022/08/12 13:22:18;;;;;;;;;;;;;;;-144.99;100.00;61100.13;5071407;28;20023;-75
2022/08/12 13:24:44;;;;;;;;;;;;;;;-144.99;100.00;61100.13;5057972;28;20280;-73
2022/08/12 13:27:11;;;;;;;;;;;;;;;-144.99;100.00;61100.13;5068321;28;20267;-75
2022/08/12 13:29:38;;;;;;;;;;;;;;;-144.99;100.00;61100.13;5068880;28;19928;-76
2022/08/12 13:32:05;;;;;;;;;;;;;;;-144.99;100.00;61100.13;5064207;28;19928;-75
2022/08/12 13:34:32;;;;;;;;;;;;;;;-144.99;100.00;61100.13;5067911;28;20015;-75
2022/08/12 13:36:58;;;;;;;;;;;;;;;-144.99;100.00;61100.13;5068131;28;19939;-75
2022/08/12 13:39:28;;;;;;;;;;;;;;;-144.99;100.00;61100.13;5070442;28;20007;-74
2022/08/12 13:41:55;;;;;;;;;;;;;;;-144.99;100.00;61100.13;5080284;28;19924;-74
2022/08/12 13:44:22;;;;;;;;;;;;;;;-144.99;100.00;61100.13;5086851;28;19931;-74
2022/08/12 13:46:49;;;;;;;;;;;;;;;-144.99;100.00;61100.13;5088039;28;19947;-75
2022/08/12 13:49:15;;;;;;;;;;;;;;;-144.99;100.00;61100.13;5056281;28;20052;-74
2022/08/12 13:51:41;;;;;;;;;;;;;;;-144.99;100.00;61100.13;5077518;28;20349;-74
2022/08/12 13:54:08;;;;;;;;;;;;;;;-144.99;100.00;61100.13;5066706;28;20405;-74
2022/08/12 13:56:37;;;;;;;;;;;;;;;-144.99;100.00;61100.13;5067655;28;20087;-74
2022/08/12 13:59:06;;;;;;;;;;;;;;;-144.99;100.00;61100.13;5065421;28;19928;-74
2022/08/12 14:01:34;;;;;;;;;;;;;;;-144.99;100.00;61100.13;5064684;28;20023;-74
2022/08/12 14:04:03;;;;;;;;;;;;;;;-144.99;100.00;61100.13;5058766;28;20399;-74
2022/08/12 14:06:30;;;;;;;;;;;;;;;-144.99;100.00;61100.13;5064637;28;20436;-75
2022/08/12 14:08:56;;;;;;;;;;;;;;;-144.99;100.00;61100.13;5062467;28;19971;-74
2022/08/12 14:11:23;;;;;;;;;;;;;;;-144.99;100.00;61100.13;5059763;28;19925;-75
2022/08/12 14:13:51;;;;;;;;;;;;;;;-144.99;100.00;61100.13;5062626;28;19928;-73
2022/08/12 14:16:17;;;;;;;;;;;;;;;-144.99;100.00;61100.13;5064144;28;19931;-74
2022/08/12 14:18:44;;;;;;;;;;;;;;;-144.99;100.00;61100.13;5066459;28;20321;-74